Time;durP1;ratioP1;P1;durP2;ratioP2;P2;SDS_P1;SDS_P2;PMS_P1;PMS_P2;Temp;Humidity;BMP_temperature;BMP_pressure;BME280_temperature;BME280_humidity;BME280_pressure;Samples;Min_cycle;Max_cycle;Signal;HPM_P1;HPM_P2
2023/10/21 00:00:22;;;;;;;0.38;0.38;;;11.10;99.90;;;;;;2071621;28;20193;-74
2023/10/21 00:01:22;;;;;;;0.83;0.50;;;11.10;99.90;;;;;;2066544;28;20181;-75
2023/10/21 00:02:24;;;;;;;0.40;0.40;;;11.00;99.90;;;;;;2062681;28;20215;-75
2023/10/21 00:03:25;;;;;;;0.40;0.40;;;11.10;99.90;;;;;;2071771;28;20261;-74
2023/10/21 00:04:26;;;;;;;0.30;0.30;;;11.10;99.90;;;;;;2072224;28;20791;-75
2023/10/21 00:05:27;;;;;;;0.40;0.40;;;11.10;99.90;;;;;;2072518;28;20233;-76
2023/10/21 00:06:28;;;;;;;1.00;0.60;;;11.10;99.90;;;;;;2070237;28;20321;-75
2023/10/21 00:07:28;;;;;;;0.60;0.30;;;11.20;99.90;;;;;;2066956;28;20475;-74
2023/10/21 00:08:29;;;;;;;1.40;0.40;;;11.10;99.90;;;;;;2067353;28;20380;-76
2023/10/21 00:09:29;;;;;;;0.50;0.50;;;11.20;99.90;;;;;;2071269;28;20290;-75
2023/10/21 00:10:30;;;;;;;0.83;0.60;;;11.20;99.90;;;;;;2071927;28;20282;-75
2023/10/21 00:11:31;;;;;;;2.10;0.87;;;11.10;99.90;;;;;;2075175;28;20659;-74
2023/10/21 00:12:32;;;;;;;0.40;0.40;;;11.20;99.90;;;;;;2080720;28;20236;-73
2023/10/21 00:13:33;;;;;;;0.88;0.50;;;11.20;99.90;;;;;;2078197;28;20519;-74
2023/10/21 00:14:34;;;;;;;0.97;0.67;;;11.10;99.90;;;;;;2068237;28;20392;-74
2023/10/21 00:15:34;;;;;;;0.50;0.50;;;11.10;99.90;;;;;;2073487;28;20225;-74
2023/10/21 00:16:35;;;;;;;0.30;0.30;;;11.00;99.90;;;;;;2076118;28;20227;-74
2023/10/21 00:17:36;;;;;;;0.50;0.50;;;11.10;99.90;;;;;;2075095;28;20316;-73
2023/10/21 00:18:37;;;;;;;0.40;0.40;;;11.10;99.90;;;;;;2069811;28;20359;-73
2023/10/21 00:19:37;;;;;;;0.30;0.30;;;11.10;99.90;;;;;;2071930;28;20225;-74
2023/10/21 00:20:38;;;;;;;0.40;0.40;;;11.10;99.90;;;;;;2071034;28;20724;-74
2023/10/21 00:21:39;;;;;;;1.23;0.40;;;11.20;99.90;;;;;;2076088;28;20298;-74
2023/10/21 00:22:39;;;;;;;0.38;0.38;;;11.10;99.90;;;;;;2075779;28;20237;-74
2023/10/21 00:23:40;;;;;;;0.40;0.40;;;11.00;99.90;;;;;;2066791;28;20249;-73
2023/10/21 00:24:41;;;;;;;0.30;0.30;;;11.10;99.90;;;;;;2076523;28;20228;-73
2023/10/21 00:25:42;;;;;;;0.40;0.40;;;11.10;99.90;;;;;;2079966;28;20225;-73
2023/10/21 00:26:47;;;;;;;0.47;0.40;;;11.00;99.90;;;;;;2076323;28;20238;-74
2023/10/21 00:27:48;;;;;;;3.00;0.50;;;11.20;99.90;;;;;;2077118;28;20227;-73
2023/10/21 00:28:49;;;;;;;0.40;0.40;;;11.20;99.90;;;;;;2079382;28;20626;-74
2023/10/21 00:29:50;;;;;;;0.30;0.30;;;11.20;99.90;;;;;;2078899;28;20228;-73
2023/10/21 00:30:50;;;;;;;0.40;0.40;;;11.20;99.90;;;;;;2080553;28;20239;-74
2023/10/21 00:31:51;;;;;;;0.40;0.40;;;11.20;99.90;;;;;;2087856;28;20228;-73
2023/10/21 00:32:52;;;;;;;0.50;0.50;;;11.20;99.90;;;;;;2085272;28;20709;-73
2023/10/21 00:33:53;;;;;;;0.63;0.47;;;11.20;99.90;;;;;;2074880;28;20661;-73
2023/10/21 00:34:54;;;;;;;0.68;0.38;;;11.20;99.90;;;;;;2079913;28;20220;-73
2023/10/21 00:35:54;;;;;;;0.40;0.40;;;11.20;99.90;;;;;;2069859;28;20684;-73
2023/10/21 00:36:56;;;;;;;0.30;0.30;;;11.20;99.90;;;;;;2071720;28;20225;-74
2023/10/21 00:37:56;;;;;;;0.50;0.50;;;11.20;99.90;;;;;;2072121;28;20580;-73
2023/10/21 00:38:57;;;;;;;0.93;0.30;;;11.30;99.90;;;;;;2072227;28;20291;-73
2023/10/21 00:39:57;;;;;;;1.90;0.90;;;11.20;99.90;;;;;;2071164;28;20226;-73
2023/10/21 00:40:58;;;;;;;0.30;0.30;;;11.30;99.90;;;;;;2070571;28;20448;-73
2023/10/21 00:41:59;;;;;;;0.40;0.40;;;11.30;99.90;;;;;;2071563;28;20320;-73
2023/10/21 00:42:59;;;;;;;0.30;0.30;;;11.20;99.90;;;;;;2071239;28;20244;-73
2023/10/21 00:44:00;;;;;;;0.40;0.40;;;11.30;99.90;;;;;;2062875;28;20684;-73
2023/10/21 00:45:03;;;;;;;0.40;0.40;;;11.30;99.90;;;;;;2071228;28;20608;-73
2023/10/21 00:46:26;;;;;;;0.57;0.47;;;11.20;99.90;;;;;;2068404;28;20283;-73
2023/10/21 00:47:27;;;;;;;1.05;0.50;;;11.20;99.90;;;;;;2077312;28;20220;-73
2023/10/21 00:48:28;;;;;;;0.50;0.40;;;11.20;99.90;;;;;;2077233;28;20232;-73
2023/10/21 00:49:31;;;;;;;0.50;0.50;;;11.20;99.90;;;;;;2068027;28;20229;-74
2023/10/21 00:50:32;;;;;;;0.40;0.40;;;11.20;99.90;;;;;;2070405;28;20457;-73
2023/10/21 00:51:35;;;;;;;0.95;0.40;;;11.20;99.90;;;;;;2068640;28;20625;-73
2023/10/21 00:52:44;;;;;;;0.50;0.47;;;11.20;99.90;;;;;;2071297;28;20233;-73
2023/10/21 00:53:45;;;;;;;0.50;0.50;;;11.20;99.90;;;;;;2071453;28;20241;-74
2023/10/21 00:54:46;;;;;;;0.40;0.40;;;11.30;99.90;;;;;;2068206;28;20301;-73
2023/10/21 00:55:47;;;;;;;0.50;0.40;;;11.40;99.90;;;;;;2071279;28;20325;-73
2023/10/21 00:56:47;;;;;;;1.80;0.50;;;11.40;99.90;;;;;;2065885;28;20248;-73
2023/10/21 00:57:49;;;;;;;0.30;0.30;;;11.30;99.90;;;;;;2063147;28;20229;-72
2023/10/21 00:58:50;;;;;;;0.57;0.40;;;11.30;99.90;;;;;;2070940;28;20232;-73
2023/10/21 00:59:51;;;;;;;0.38;0.38;;;11.40;99.90;;;;;;2076498;28;20228;-73
2023/10/21 01:00:51;;;;;;;0.40;0.40;;;11.40;99.90;;;;;;2067663;28;20229;-73
2023/10/21 01:01:52;;;;;;;1.83;0.50;;;11.50;99.90;;;;;;2060400;28;20274;-73
2023/10/21 01:02:53;;;;;;;0.30;0.30;;;11.40;99.90;;;;;;2070025;28;20248;-73
2023/10/21 01:03:54;;;;;;;0.43;0.30;;;11.40;99.90;;;;;;2070745;28;20217;-73
2023/10/21 01:04:55;;;;;;;0.95;0.50;;;11.40;99.90;;;;;;2077912;28;20228;-73
2023/10/21 01:05:56;;;;;;;0.87;0.40;;;11.30;99.90;;;;;;2077389;28;20232;-72
2023/10/21 01:06:57;;;;;;;0.67;0.50;;;11.30;99.90;;;;;;2082957;28;20742;-72
2023/10/21 01:08:00;;;;;;;0.50;0.40;;;11.20;99.90;;;;;;2085369;28;20602;-73
2023/10/21 01:09:01;;;;;;;0.43;0.43;;;11.20;99.90;;;;;;2079085;28;20220;-74
2023/10/21 01:10:03;;;;;;;0.40;0.40;;;11.20;99.90;;;;;;2078601;28;20222;-73
2023/10/21 01:11:04;;;;;;;0.40;0.40;;;11.20;99.90;;;;;;2073132;28;20268;-73
2023/10/21 01:12:07;;;;;;;0.40;0.40;;;11.20;99.90;;;;;;2074606;28;20310;-73
2023/10/21 01:13:07;;;;;;;0.40;0.40;;;11.20;99.90;;;;;;2077580;28;20234;-73
2023/10/21 01:14:09;;;;;;;0.70;0.40;;;11.30;99.90;;;;;;2069675;28;20566;-73
2023/10/21 01:15:09;;;;;;;1.40;0.47;;;11.30;99.90;;;;;;2070434;28;20186;-73
2023/10/21 01:16:10;;;;;;;0.40;0.40;;;11.30;99.90;;;;;;2070251;28;20268;-72
2023/10/21 01:17:11;;;;;;;0.50;0.40;;;11.30;99.90;;;;;;2068878;28;20268;-73
2023/10/21 01:18:13;;;;;;;0.73;0.50;;;11.30;99.90;;;;;;2071685;28;20473;-73
2023/10/21 01:19:14;;;;;;;0.60;0.40;;;11.30;99.90;;;;;;2078502;28;20571;-73
2023/10/21 01:20:14;;;;;;;0.50;0.50;;;11.30;99.90;;;;;;2077596;28;20197;-73
2023/10/21 01:21:15;;;;;;;1.50;0.50;;;11.30;99.90;;;;;;2067496;28;20202;-73
2023/10/21 01:22:16;;;;;;;0.40;0.40;;;11.30;99.90;;;;;;2071089;28;20213;-73
2023/10/21 01:23:23;;;;;;;0.47;0.47;;;11.30;99.90;;;;;;2069338;28;20198;-73
2023/10/21 01:24:24;;;;;;;0.40;0.40;;;11.30;99.90;;;;;;2070150;28;20695;-73
2023/10/21 01:25:24;;;;;;;1.20;0.50;;;11.20;99.90;;;;;;2061917;28;20269;-72
2023/10/21 01:26:25;;;;;;;0.63;0.50;;;11.30;99.90;;;;;;2071186;28;20186;-72
2023/10/21 01:27:26;;;;;;;0.70;0.50;;;11.30;99.90;;;;;;2071147;28;20303;-72
2023/10/21 01:28:27;;;;;;;0.40;0.40;;;11.30;99.90;;;;;;2071065;28;20308;-73
2023/10/21 01:29:27;;;;;;;0.50;0.50;;;11.30;99.90;;;;;;2069164;28;20229;-74
2023/10/21 01:30:28;;;;;;;0.80;0.40;;;11.30;99.90;;;;;;2069523;28;20233;-73
2023/10/21 01:31:32;;;;;;;1.00;0.50;;;11.30;99.90;;;;;;2070527;28;20315;-73
2023/10/21 01:32:33;;;;;;;0.40;0.40;;;11.30;99.90;;;;;;2069500;28;20463;-72
2023/10/21 01:33:34;;;;;;;0.70;0.50;;;11.30;99.90;;;;;;2068070;28;20225;-73
2023/10/21 01:34:34;;;;;;;0.50;0.50;;;11.30;99.90;;;;;;2068814;28;20467;-73
2023/10/21 01:35:35;;;;;;;0.50;0.40;;;11.30;99.90;;;;;;2067557;28;20221;-72
2023/10/21 01:36:35;;;;;;;0.40;0.40;;;11.30;99.90;;;;;;2069322;28;20594;-73
2023/10/21 01:37:36;;;;;;;0.40;0.40;;;11.20;99.90;;;;;;2067303;28;20300;-72
2023/10/21 01:38:38;;;;;;;0.50;0.50;;;11.20;99.90;;;;;;2065106;28;20665;-72
2023/10/21 01:39:40;;;;;;;1.38;0.50;;;11.20;99.90;;;;;;2061539;28;20238;-73
2023/10/21 01:40:41;;;;;;;0.50;0.50;;;11.20;99.90;;;;;;2070339;28;20221;-73
2023/10/21 01:41:41;;;;;;;0.50;0.50;;;11.20;99.90;;;;;;2071418;28;20217;-72
2023/10/21 01:42:42;;;;;;;0.77;0.63;;;11.20;99.90;;;;;;2070948;28;20734;-73
2023/10/21 01:43:43;;;;;;;0.50;0.50;;;11.10;99.90;;;;;;2074670;28;20302;-72
2023/10/21 01:44:43;;;;;;;0.50;0.50;;;11.10;99.90;;;;;;2071996;28;20279;-73
2023/10/21 01:45:44;;;;;;;0.50;0.50;;;11.10;99.90;;;;;;2068870;28;20244;-73
2023/10/21 01:46:45;;;;;;;0.40;0.40;;;11.10;99.90;;;;;;2068616;28;20304;-73
2023/10/21 01:47:46;;;;;;;0.60;0.60;;;11.10;99.90;;;;;;2069300;28;20221;-73
2023/10/21 01:48:47;;;;;;;1.67;0.60;;;11.20;99.90;;;;;;2069597;28;20749;-73
2023/10/21 01:49:47;;;;;;;0.80;0.60;;;11.10;99.90;;;;;;2068847;28;20256;-72
2023/10/21 01:50:48;;;;;;;0.83;0.50;;;11.10;99.90;;;;;;2069321;28;20236;-72
2023/10/21 01:51:49;;;;;;;0.57;0.50;;;11.10;99.90;;;;;;2077793;28;20319;-73
2023/10/21 01:52:50;;;;;;;0.50;0.50;;;11.10;99.90;;;;;;2067684;28;20814;-73
2023/10/21 01:53:50;;;;;;;2.40;0.45;;;11.10;99.90;;;;;;2065209;28;20228;-73
2023/10/21 01:54:53;;;;;;;0.60;0.40;;;11.00;99.90;;;;;;2077848;28;20220;-73
2023/10/21 01:56:03;;;;;;;0.98;0.40;;;11.00;99.90;;;;;;2066686;28;20228;-73
2023/10/21 01:57:04;;;;;;;0.93;0.50;;;11.00;99.90;;;;;;2070969;28;20612;-72
2023/10/21 01:58:04;;;;;;;0.60;0.60;;;11.10;99.90;;;;;;2070075;28;20229;-72
2023/10/21 01:59:06;;;;;;;0.40;0.40;;;11.00;99.90;;;;;;2069331;28;20233;-73
2023/10/21 02:00:10;;;;;;;0.50;0.50;;;11.00;99.90;;;;;;2072809;28;20228;-72
2023/10/21 02:01:11;;;;;;;0.45;0.45;;;11.00;99.90;;;;;;2077051;28;20284;-72
2023/10/21 02:02:12;;;;;;;0.67;0.40;;;11.00;99.90;;;;;;2069177;28;20213;-73
2023/10/21 02:03:12;;;;;;;0.50;0.50;;;11.00;99.90;;;;;;2071758;28;20197;-72
2023/10/21 02:04:13;;;;;;;0.40;0.40;;;10.90;99.90;;;;;;2067724;28;20189;-72
2023/10/21 02:05:14;;;;;;;0.50;0.50;;;10.90;99.90;;;;;;2069012;28;20232;-73
2023/10/21 02:06:14;;;;;;;0.63;0.40;;;10.90;99.90;;;;;;2074186;28;20181;-72
2023/10/21 02:07:15;;;;;;;0.40;0.40;;;11.00;99.90;;;;;;2069025;28;20640;-72
2023/10/21 02:08:15;;;;;;;0.73;0.50;;;11.00;99.90;;;;;;2070800;28;20185;-72
2023/10/21 02:09:17;;;;;;;0.50;0.50;;;11.00;99.90;;;;;;2070522;28;20205;-73
2023/10/21 02:10:17;;;;;;;0.63;0.50;;;11.00;99.90;;;;;;2084385;28;20192;-73
2023/10/21 02:11:22;;;;;;;1.30;0.40;;;11.00;99.90;;;;;;2086833;28;20283;-72
2023/10/21 02:12:22;;;;;;;0.45;0.40;;;11.10;99.90;;;;;;2068786;28;20229;-73
2023/10/21 02:13:23;;;;;;;0.50;0.50;;;11.00;99.90;;;;;;2067946;28;20302;-72
2023/10/21 02:14:24;;;;;;;0.53;0.50;;;11.00;99.90;;;;;;2070881;28;20198;-73
2023/10/21 02:15:25;;;;;;;0.53;0.47;;;11.10;99.90;;;;;;2068848;28;20192;-73
2023/10/21 02:16:25;;;;;;;0.40;0.40;;;11.10;99.90;;;;;;2068135;28;20605;-73
2023/10/21 02:17:26;;;;;;;0.50;0.50;;;11.20;99.90;;;;;;2068724;28;20238;-72
2023/10/21 02:18:27;;;;;;;0.57;0.57;;;11.20;99.90;;;;;;2066588;28;20230;-73
2023/10/21 02:19:27;;;;;;;1.33;0.57;;;11.10;99.90;;;;;;2064487;28;21014;-73
2023/10/21 02:20:28;;;;;;;0.57;0.53;;;11.20;99.90;;;;;;2061621;28;20230;-72
2023/10/21 02:21:28;;;;;;;1.27;0.60;;;11.20;99.90;;;;;;2059565;28;20229;-73
2023/10/21 02:22:29;;;;;;;0.60;0.47;;;11.20;99.90;;;;;;2067801;28;20268;-73
2023/10/21 02:23:30;;;;;;;0.73;0.50;;;11.20;99.90;;;;;;2073677;28;20221;-73
2023/10/21 02:24:35;;;;;;;0.53;0.50;;;11.20;99.90;;;;;;2075547;28;20252;-72
2023/10/21 02:25:35;;;;;;;0.85;0.52;;;11.20;99.90;;;;;;2077145;28;20220;-73
2023/10/21 02:26:36;;;;;;;0.63;0.50;;;11.20;99.90;;;;;;2078118;28;20250;-72
2023/10/21 02:27:37;;;;;;;0.50;0.50;;;11.20;99.90;;;;;;2078282;28;20319;-72
2023/10/21 02:28:37;;;;;;;1.93;0.53;;;11.20;99.90;;;;;;2079028;28;20221;-72
2023/10/21 02:29:38;;;;;;;2.50;1.00;;;11.20;99.90;;;;;;2078028;28;20738;-72
2023/10/21 02:30:39;;;;;;;0.90;0.60;;;11.30;99.90;;;;;;2071198;28;20240;-73
2023/10/21 02:31:40;;;;;;;1.20;0.70;;;11.20;99.90;;;;;;2072358;28;20296;-72
2023/10/21 02:32:45;;;;;;;1.10;0.65;;;11.20;99.90;;;;;;2060355;28;20225;-73
2023/10/21 02:33:45;;;;;;;0.80;0.50;;;11.20;99.90;;;;;;2069551;28;20220;-73
2023/10/21 02:34:46;;;;;;;0.87;0.50;;;11.20;99.90;;;;;;2068870;28;20793;-72
2023/10/21 02:35:52;;;;;;;0.63;0.50;;;11.30;99.90;;;;;;2069446;28;20700;-73
2023/10/21 02:36:52;;;;;;;1.30;0.70;;;11.30;99.90;;;;;;2070214;28;20267;-72
2023/10/21 02:37:53;;;;;;;0.97;0.70;;;11.30;99.90;;;;;;2069740;28;20232;-73
2023/10/21 02:38:53;;;;;;;1.80;0.90;;;11.40;99.90;;;;;;2070216;28;20221;-72
2023/10/21 02:39:54;;;;;;;1.10;0.70;;;11.30;99.90;;;;;;2067224;28;20317;-73
2023/10/21 02:40:55;;;;;;;1.87;1.10;;;11.30;99.90;;;;;;2070145;28;20221;-72
2023/10/21 02:41:55;;;;;;;0.77;0.50;;;11.40;99.90;;;;;;2061178;28;20241;-72
2023/10/21 02:42:56;;;;;;;0.77;0.60;;;11.30;99.90;;;;;;2061989;28;20218;-72
2023/10/21 02:43:56;;;;;;;2.27;1.17;;;11.40;99.90;;;;;;2069771;28;20245;-72
2023/10/21 02:44:57;;;;;;;2.67;0.80;;;11.40;99.90;;;;;;2061898;28;20276;-73
2023/10/21 02:46:07;;;;;;;4.60;1.67;;;11.50;99.90;;;;;;2070611;28;20226;-73
2023/10/21 02:47:07;;;;;;;2.67;1.17;;;11.40;99.90;;;;;;2077191;28;20711;-73
2023/10/21 02:48:08;;;;;;;1.50;0.60;;;11.50;99.90;;;;;;2077483;28;20189;-73
2023/10/21 02:49:09;;;;;;;0.70;0.60;;;11.40;99.90;;;;;;2078814;28;20191;-73
2023/10/21 02:50:09;;;;;;;1.07;0.57;;;11.40;99.90;;;;;;2077803;28;20675;-73
2023/10/21 02:51:14;;;;;;;1.30;0.60;;;11.40;99.90;;;;;;2080267;28;20220;-73
2023/10/21 02:52:15;;;;;;;0.40;0.40;;;11.40;99.90;;;;;;2076461;28;20215;-73
2023/10/21 02:53:16;;;;;;;0.50;0.50;;;11.50;99.90;;;;;;2082708;28;20193;-72
2023/10/21 02:54:17;;;;;;;0.37;0.37;;;11.40;99.90;;;;;;2081043;28;20188;-73
2023/10/21 02:55:18;;;;;;;0.70;0.50;;;11.50;99.90;;;;;;2080394;28;20420;-72
2023/10/21 02:56:19;;;;;;;1.42;0.60;;;11.40;99.90;;;;;;2080606;28;20224;-72
2023/10/21 02:57:20;;;;;;;1.37;0.40;;;11.40;99.90;;;;;;2077483;28;20181;-72
2023/10/21 02:58:21;;;;;;;1.50;0.50;;;11.50;99.90;;;;;;2072103;28;20269;-72
2023/10/21 02:59:21;;;;;;;0.80;0.43;;;11.40;99.90;;;;;;2072698;28;20718;-72
2023/10/21 03:00:22;;;;;;;0.53;0.50;;;11.50;99.90;;;;;;2072196;28;20731;-72
2023/10/21 03:01:25;;;;;;;0.73;0.50;;;11.50;99.90;;;;;;2069073;28;20214;-72
2023/10/21 03:02:26;;;;;;;1.75;0.95;;;11.50;99.90;;;;;;2066663;28;20744;-72
2023/10/21 03:03:27;;;;;;;1.83;0.90;;;11.50;99.90;;;;;;2061292;28;20759;-73
2023/10/21 03:04:27;;;;;;;1.10;0.63;;;11.50;99.90;;;;;;2062736;28;20234;-73
2023/10/21 03:05:28;;;;;;;3.67;1.30;;;11.50;99.90;;;;;;2071672;28;20332;-73
2023/10/21 03:06:29;;;;;;;3.07;1.13;;;11.50;99.90;;;;;;2072151;28;20238;-73
2023/10/21 03:07:29;;;;;;;1.90;1.10;;;11.50;99.90;;;;;;2071489;28;20693;-73
2023/10/21 03:08:30;;;;;;;1.30;0.43;;;11.50;99.90;;;;;;2079841;28;20233;-72
2023/10/21 03:09:31;;;;;;;0.97;0.60;;;11.40;99.90;;;;;;2079643;28;20316;-73
2023/10/21 03:10:31;;;;;;;1.13;0.70;;;11.40;99.90;;;;;;2068041;28;20230;-73
2023/10/21 03:11:32;;;;;;;3.50;1.30;;;11.40;99.90;;;;;;2068133;28;20233;-73
2023/10/21 03:12:33;;;;;;;1.37;0.97;;;11.40;99.90;;;;;;2071253;28;20236;-73
2023/10/21 03:13:35;;;;;;;1.23;0.70;;;11.50;99.90;;;;;;2072010;28;20241;-72
2023/10/21 03:14:38;;;;;;;1.48;0.70;;;11.40;99.90;;;;;;2068973;28;20333;-73
2023/10/21 03:15:39;;;;;;;0.80;0.68;;;11.50;99.90;;;;;;2072058;28;20695;-73
2023/10/21 03:16:39;;;;;;;5.50;1.23;;;11.50;99.90;;;;;;2072114;28;20279;-73
2023/10/21 03:17:40;;;;;;;2.00;0.90;;;11.40;99.90;;;;;;2070456;28;20228;-73
2023/10/21 03:18:41;;;;;;;0.80;0.60;;;11.40;99.90;;;;;;2070336;28;20315;-73
2023/10/21 03:19:42;;;;;;;0.50;0.50;;;11.40;99.90;;;;;;2068244;28;20244;-73
2023/10/21 03:20:43;;;;;;;0.97;0.40;;;11.30;99.90;;;;;;2070920;28;20256;-73
2023/10/21 03:21:45;;;;;;;0.80;0.50;;;11.30;99.90;;;;;;2070474;28;20221;-73
2023/10/21 03:22:45;;;;;;;0.45;0.40;;;11.30;99.90;;;;;;2076886;28;20267;-73
2023/10/21 03:23:46;;;;;;;0.93;0.50;;;11.30;99.90;;;;;;2079168;28;20698;-73
2023/10/21 03:24:46;;;;;;;0.87;0.60;;;11.30;99.90;;;;;;2079660;28;20283;-73
2023/10/21 03:25:58;;;;;;;1.20;0.50;;;11.30;99.90;;;;;;2086118;28;20224;-73
2023/10/21 03:26:59;;;;;;;0.40;0.40;;;11.30;99.90;;;;;;2084968;28;20250;-73
2023/10/21 03:28:00;;;;;;;0.73;0.40;;;11.20;99.90;;;;;;2069631;28;20222;-73
2023/10/21 03:29:03;;;;;;;0.98;0.60;;;11.30;99.90;;;;;;2067654;28;20233;-73
2023/10/21 03:30:04;;;;;;;2.42;1.02;;;11.30;99.90;;;;;;2070925;28;20226;-73
2023/10/21 03:31:05;;;;;;;1.80;1.08;;;11.20;99.90;;;;;;2071142;28;20233;-73
2023/10/21 03:32:07;;;;;;;1.30;1.00;;;11.10;99.90;;;;;;2066926;28;20230;-74
2023/10/21 03:33:07;;;;;;;1.13;0.60;;;11.10;99.90;;;;;;2071377;28;20200;-73
2023/10/21 03:34:08;;;;;;;1.83;0.70;;;11.10;99.90;;;;;;2069200;28;20209;-74
2023/10/21 03:35:09;;;;;;;1.00;0.60;;;11.10;99.90;;;;;;2070953;28;20585;-74
2023/10/21 03:36:10;;;;;;;1.30;0.70;;;11.10;99.90;;;;;;2068741;28;20186;-74
2023/10/21 03:37:11;;;;;;;1.43;0.77;;;11.10;99.90;;;;;;2070457;28;20646;-73
2023/10/21 03:38:11;;;;;;;1.13;0.70;;;11.10;99.90;;;;;;2070772;28;21076;-74
2023/10/21 03:39:12;;;;;;;0.70;0.70;;;11.10;99.90;;;;;;2068474;28;20178;-73
2023/10/21 03:40:13;;;;;;;1.20;0.70;;;11.10;99.90;;;;;;2069038;28;20264;-74
2023/10/21 03:41:15;;;;;;;0.40;0.40;;;11.10;99.90;;;;;;2069369;28;20193;-74
2023/10/21 03:42:15;;;;;;;0.32;0.32;;;11.10;99.90;;;;;;2064408;28;20300;-74
2023/10/21 03:43:16;;;;;;;0.33;0.33;;;11.20;99.90;;;;;;2069237;28;20675;-73
2023/10/21 03:44:17;;;;;;;0.30;0.30;;;11.20;99.90;;;;;;2072696;28;20269;-73
2023/10/21 03:45:18;;;;;;;0.40;0.40;;;11.20;99.90;;;;;;2076481;28;20556;-74
2023/10/21 03:46:20;;;;;;;0.30;0.30;;;11.20;99.90;;;;;;2080269;28;20177;-73
2023/10/21 03:47:20;;;;;;;0.47;0.47;;;11.20;99.90;;;;;;2080144;28;20181;-74
2023/10/21 03:48:22;;;;;;;0.40;0.40;;;11.30;99.90;;;;;;2078577;28;20698;-73
2023/10/21 03:49:23;;;;;;;0.55;0.40;;;11.30;99.90;;;;;;2076633;28;20655;-74
2023/10/21 03:50:24;;;;;;;0.53;0.53;;;11.30;99.90;;;;;;2085822;28;20206;-73
2023/10/21 03:51:25;;;;;;;0.40;0.40;;;11.30;99.90;;;;;;2086258;28;20189;-73
2023/10/21 03:52:26;;;;;;;0.40;0.40;;;11.30;99.90;;;;;;2079015;28;20236;-73
2023/10/21 03:53:26;;;;;;;0.40;0.40;;;11.30;99.90;;;;;;2078916;28;20241;-73
2023/10/21 03:54:27;;;;;;;0.37;0.37;;;11.40;99.90;;;;;;2080637;28;20229;-73
2023/10/21 03:55:27;;;;;;;0.47;0.47;;;11.40;99.90;;;;;;2076422;28;20839;-73
2023/10/21 03:56:28;;;;;;;0.67;0.30;;;11.50;99.90;;;;;;2071569;28;20233;-74
2023/10/21 03:57:29;;;;;;;0.40;0.40;;;11.50;99.90;;;;;;2075581;28;20236;-74
2023/10/21 03:58:30;;;;;;;0.40;0.40;;;11.50;99.90;;;;;;2078203;28;20232;-73
2023/10/21 03:59:30;;;;;;;0.40;0.40;;;11.50;99.90;;;;;;2079830;28;20714;-74
2023/10/21 04:00:31;;;;;;;1.63;0.40;;;11.60;99.90;;;;;;2076453;28;20283;-73
2023/10/21 04:01:31;;;;;;;0.40;0.40;;;11.60;99.90;;;;;;2078856;28;20232;-73
2023/10/21 04:02:32;;;;;;;0.33;0.33;;;11.60;99.90;;;;;;2070916;28;20267;-73
2023/10/21 04:03:34;;;;;;;0.40;0.40;;;11.60;99.90;;;;;;2061184;28;20258;-73
2023/10/21 04:04:35;;;;;;;0.82;0.35;;;11.60;99.90;;;;;;2060367;28;20346;-73
2023/10/21 04:05:35;;;;;;;0.73;0.40;;;11.60;99.90;;;;;;2071212;28;20221;-73
2023/10/21 04:06:36;;;;;;;0.50;0.40;;;11.60;99.90;;;;;;2077594;28;20310;-73
2023/10/21 04:07:36;;;;;;;1.37;0.40;;;11.50;99.90;;;;;;2071245;28;20236;-73
2023/10/21 04:08:37;;;;;;;0.43;0.43;;;11.50;99.90;;;;;;2070218;28;20237;-73
2023/10/21 04:09:38;;;;;;;1.20;0.50;;;11.50;99.90;;;;;;2062991;28;20226;-74
2023/10/21 04:10:38;;;;;;;0.40;0.40;;;11.50;99.90;;;;;;2070914;28;20319;-73
2023/10/21 04:11:39;;;;;;;0.50;0.30;;;11.50;99.90;;;;;;2069148;28;20237;-73
2023/10/21 04:12:39;;;;;;;0.83;0.40;;;11.50;99.90;;;;;;2069054;28;20237;-73
2023/10/21 04:13:40;;;;;;;0.53;0.40;;;11.50;99.90;;;;;;2069121;28;20241;-73
2023/10/21 04:14:41;;;;;;;1.40;0.40;;;11.50;99.90;;;;;;2070830;28;20304;-73
2023/10/21 04:15:42;;;;;;;1.50;0.40;;;11.50;99.90;;;;;;2063588;28;20233;-73
2023/10/21 04:16:44;;;;;;;0.22;0.22;;;11.60;99.90;;;;;;2069947;28;20229;-74
2023/10/21 04:17:47;;;;;;;0.50;0.50;;;11.50;99.90;;;;;;2068441;28;20217;-73
2023/10/21 04:18:48;;;;;;;0.60;0.45;;;11.50;99.90;;;;;;2065815;28;20241;-73
2023/10/21 04:19:50;;;;;;;0.57;0.40;;;11.40;99.90;;;;;;2063895;28;20650;-73
2023/10/21 04:20:51;;;;;;;0.70;0.50;;;11.40;99.90;;;;;;2071638;28;20229;-73
2023/10/21 04:21:52;;;;;;;0.30;0.30;;;11.40;99.90;;;;;;2071152;28;20255;-73
2023/10/21 04:22:53;;;;;;;0.57;0.50;;;11.40;99.90;;;;;;2070724;28;20256;-73
2023/10/21 04:23:54;;;;;;;0.40;0.40;;;11.40;99.90;;;;;;2071187;28;20632;-73
2023/10/21 04:24:55;;;;;;;0.30;0.30;;;11.30;99.90;;;;;;2071196;28;20229;-73
2023/10/21 04:25:55;;;;;;;1.07;0.40;;;11.40;99.90;;;;;;2071753;28;20315;-74
2023/10/21 04:26:56;;;;;;;0.67;0.43;;;11.30;99.90;;;;;;2072084;28;20278;-73
2023/10/21 04:27:57;;;;;;;0.30;0.30;;;11.30;99.90;;;;;;2070075;28;20272;-75
2023/10/21 04:28:57;;;;;;;0.30;0.30;;;11.30;99.90;;;;;;2076119;28;20760;-73
2023/10/21 04:29:58;;;;;;;0.40;0.40;;;11.30;99.90;;;;;;2069282;28;20287;-73
2023/10/21 04:30:59;;;;;;;0.60;0.40;;;11.30;99.90;;;;;;2071998;28;20229;-74
2023/10/21 04:32:00;;;;;;;0.30;0.30;;;11.30;99.90;;;;;;2071424;28;20225;-73
2023/10/21 04:33:01;;;;;;;0.30;0.30;;;11.30;99.90;;;;;;2071256;28;20213;-73
2023/10/21 04:34:03;;;;;;;1.23;0.30;;;11.20;99.90;;;;;;2070774;28;20756;-73
2023/10/21 04:35:04;;;;;;;0.88;0.38;;;11.20;99.90;;;;;;2078136;28;20228;-73
2023/10/21 04:36:05;;;;;;;0.30;0.30;;;11.30;99.90;;;;;;2079403;28;20221;-72
2023/10/21 04:37:05;;;;;;;0.47;0.47;;;11.20;99.90;;;;;;2071139;28;20251;-72
2023/10/21 04:38:09;;;;;;;0.40;0.40;;;11.20;99.90;;;;;;2068103;28;20214;-73
2023/10/21 04:39:09;;;;;;;0.30;0.30;;;11.20;99.90;;;;;;2070767;28;20212;-73
2023/10/21 04:40:11;;;;;;;0.30;0.30;;;11.20;99.90;;;;;;2087709;28;20184;-73
2023/10/21 04:41:12;;;;;;;0.30;0.30;;;11.10;99.90;;;;;;2077959;28;20240;-73
2023/10/21 04:42:13;;;;;;;0.83;0.50;;;11.10;99.90;;;;;;2070956;28;20214;-73
2023/10/21 04:43:14;;;;;;;0.40;0.40;;;11.00;99.90;;;;;;2070733;28;20245;-73
2023/10/21 04:44:15;;;;;;;1.20;0.60;;;11.00;99.90;;;;;;2069641;28;20273;-74
2023/10/21 04:45:15;;;;;;;0.30;0.30;;;11.00;99.90;;;;;;2071504;28;20189;-73
2023/10/21 04:46:17;;;;;;;0.43;0.43;;;11.00;99.90;;;;;;2069434;28;20190;-73
2023/10/21 04:47:18;;;;;;;0.47;0.40;;;11.00;99.90;;;;;;2067981;28;20269;-73
2023/10/21 04:48:18;;;;;;;0.30;0.30;;;11.00;99.90;;;;;;2070412;28;20248;-72
2023/10/21 04:49:19;;;;;;;0.30;0.30;;;11.00;99.90;;;;;;2069126;28;20197;-72
2023/10/21 04:50:20;;;;;;;0.40;0.40;;;11.00;99.90;;;;;;2070790;28;20224;-73
2023/10/21 04:51:20;;;;;;;0.40;0.40;;;11.00;99.90;;;;;;2071332;28;20228;-72
2023/10/21 04:52:21;;;;;;;0.40;0.40;;;11.00;99.90;;;;;;2070669;28;20206;-72
2023/10/21 04:53:21;;;;;;;0.40;0.40;;;11.00;99.90;;;;;;2071098;28;20197;-72
2023/10/21 04:54:22;;;;;;;0.30;0.30;;;11.00;99.90;;;;;;2074144;28;20192;-72
2023/10/21 04:55:23;;;;;;;0.87;0.40;;;11.00;99.90;;;;;;2071900;28;20185;-72
2023/10/21 04:56:26;;;;;;;1.70;0.77;;;11.10;99.90;;;;;;2071688;28;20219;-72
2023/10/21 04:57:27;;;;;;;0.32;0.32;;;11.20;99.90;;;;;;2070789;28;20233;-73
2023/10/21 04:58:28;;;;;;;0.40;0.40;;;11.20;99.90;;;;;;2072172;28;20233;-72
2023/10/21 04:59:28;;;;;;;0.97;0.40;;;11.20;99.90;;;;;;2070803;28;20607;-73
2023/10/21 05:00:29;;;;;;;0.33;0.33;;;11.20;99.90;;;;;;2072351;28;20237;-73
2023/10/21 05:01:29;;;;;;;0.70;0.40;;;11.20;99.90;;;;;;2074454;28;20255;-73
2023/10/21 05:02:30;;;;;;;0.40;0.40;;;11.20;99.90;;;;;;2075987;28;20237;-73
2023/10/21 05:03:31;;;;;;;0.30;0.30;;;11.20;99.90;;;;;;2069991;28;20304;-72
2023/10/21 05:04:32;;;;;;;0.63;0.37;;;11.20;99.90;;;;;;2069732;28;20313;-72
2023/10/21 05:05:34;;;;;;;0.30;0.30;;;11.10;99.90;;;;;;2068467;28;20460;-72
2023/10/21 05:06:35;;;;;;;0.30;0.30;;;11.10;99.90;;;;;;2070491;28;20700;-72
2023/10/21 05:07:36;;;;;;;0.50;0.50;;;11.10;99.90;;;;;;2068604;28;20296;-72
2023/10/21 05:08:36;;;;;;;0.50;0.40;;;11.10;99.90;;;;;;2065709;28;20890;-72
2023/10/21 05:09:37;;;;;;;0.40;0.40;;;11.10;99.90;;;;;;2069743;28;20217;-72
2023/10/21 05:10:38;;;;;;;0.30;0.30;;;11.10;99.90;;;;;;2074880;28;20275;-72
2023/10/21 05:11:39;;;;;;;0.40;0.40;;;11.00;99.90;;;;;;2064959;28;20304;-72
2023/10/21 05:12:39;;;;;;;0.40;0.40;;;11.00;99.90;;;;;;2066886;28;20229;-72
2023/10/21 05:13:40;;;;;;;1.63;0.40;;;11.00;99.90;;;;;;2066824;28;20230;-72
2023/10/21 05:14:40;;;;;;;0.40;0.30;;;11.00;99.90;;;;;;2070081;28;20271;-72
2023/10/21 05:15:41;;;;;;;0.33;0.30;;;11.00;99.90;;;;;;2068423;28;20221;-72
2023/10/21 05:16:42;;;;;;;0.80;0.40;;;11.00;99.90;;;;;;2069024;28;20220;-72
2023/10/21 05:17:43;;;;;;;1.80;0.45;;;11.10;99.90;;;;;;2068311;28;20226;-72
2023/10/21 05:18:43;;;;;;;0.30;0.30;;;11.10;99.90;;;;;;2064820;28;20609;-74